createdAt,value
2018-11-28T00:04:43.120Z,7.57
2018-11-28T00:09:42.568Z,7.37
2018-11-28T00:14:35.896Z,7.18
2018-11-28T00:19:29.380Z,7.00
2018-11-28T00:24:22.793Z,6.81
2018-11-28T00:29:16.248Z,6.58
2018-11-28T00:34:09.711Z,6.29
2018-11-28T00:39:03.478Z,6.29
2018-11-28T00:43:56.990Z,6.29
2018-11-28T00:48:50.340Z,6.23
2018-11-28T00:53:43.706Z,6.44
2018-11-28T00:58:37.176Z,6.75
2018-11-28T01:03:30.659Z,6.87
2018-11-28T01:08:24.019Z,6.98
2018-11-28T01:13:17.353Z,7.09
2018-11-28T01:18:10.715Z,6.71
2018-11-28T01:23:04.128Z,6.07
2018-11-28T01:27:57.557Z,5.83
2018-11-28T01:32:51.063Z,5.69
2018-11-28T01:37:44.663Z,5.52
2018-11-28T01:42:38.198Z,5.60
2018-11-28T01:47:31.660Z,5.75
2018-11-28T01:52:25.289Z,5.46
2018-11-28T01:57:18.775Z,5.09
2018-11-28T02:02:12.134Z,4.80
2018-11-28T02:07:06.220Z,4.56
2018-11-28T02:11:59.602Z,4.91
2018-11-28T02:16:53.075Z,5.36
2018-11-28T02:21:46.485Z,5.72
2018-11-28T02:26:39.891Z,5.60
2018-11-28T02:31:33.235Z,5.85
2018-11-28T02:36:26.617Z,5.92
2018-11-28T02:41:20.080Z,6.45
2018-11-28T02:46:26.744Z,6.56
2018-11-28T02:51:20.211Z,6.63
2018-11-28T02:56:13.657Z,6.31
2018-11-28T03:01:07.083Z,5.99
2018-11-28T03:06:00.614Z,5.61
2018-11-28T03:10:54.019Z,5.44
2018-11-28T03:15:49.130Z,5.35
2018-11-28T03:20:42.480Z,5.28
2018-11-28T03:25:35.947Z,5.40
2018-11-28T03:30:29.354Z,5.38
2018-11-28T03:35:22.721Z,5.63
2018-11-28T03:40:16.213Z,6.14
2018-11-28T03:45:13.831Z,6.27
2018-11-28T03:50:09.037Z,6.18
2018-11-28T03:55:02.560Z,6.02
2018-11-28T03:59:56.056Z,5.72
2018-11-28T04:04:49.429Z,5.64
2018-11-28T04:09:42.936Z,5.65
2018-11-28T04:14:36.335Z,5.61
2018-11-28T04:19:29.661Z,5.57
2018-11-28T04:24:23.087Z,5.07
2018-11-28T04:29:16.510Z,4.98
2018-11-28T04:34:10.089Z,4.56
2018-11-28T04:39:04.564Z,4.50
2018-11-28T04:43:58.102Z,4.53
2018-11-28T04:48:51.527Z,4.30
2018-11-28T04:53:45.067Z,4.15
2018-11-28T04:58:42.186Z,4.15
2018-11-28T05:03:36.975Z,4.10
2018-11-28T05:08:29.071Z,4.09
2018-11-28T05:13:22.414Z,3.72
2018-11-28T05:18:15.955Z,3.62
2018-11-28T05:23:10.327Z,3.72
2018-11-28T05:28:04.445Z,3.53
2018-11-28T05:32:57.968Z,3.43
2018-11-28T05:37:51.500Z,3.50
2018-11-28T05:42:45.092Z,3.60
2018-11-28T05:47:38.517Z,3.93
2018-11-28T05:52:32.467Z,3.94
2018-11-28T05:57:26.158Z,3.96
2018-11-28T06:02:20.686Z,3.99
2018-11-28T06:07:14.798Z,4.02
2018-11-28T06:12:08.495Z,4.16
2018-11-28T06:17:04.895Z,4.37
2018-11-28T06:21:58.703Z,4.58
2018-11-28T06:26:52.385Z,4.08
2018-11-28T06:31:46.008Z,3.85
2018-11-28T06:36:39.561Z,3.85
2018-11-28T06:41:34.548Z,3.91
2018-11-28T06:46:27.987Z,4.09
2018-11-28T06:51:21.569Z,4.20
2018-11-28T06:56:15.035Z,4.14
2018-11-28T07:01:08.733Z,4.46
2018-11-28T07:06:06.773Z,4.12
2018-11-28T07:11:00.430Z,3.41
2018-11-28T07:15:54.135Z,3.38
2018-11-28T07:20:47.516Z,3.41
2018-11-28T07:25:42.370Z,2.89
2018-11-28T07:30:37.843Z,2.76
2018-11-28T07:35:29.672Z,2.84
2018-11-28T07:40:24.475Z,3.29
2018-11-28T07:45:20.257Z,3.19
2018-11-28T07:50:14.266Z,3.25
2018-11-28T07:55:11.260Z,3.27
2018-11-28T08:00:08.865Z,3.29
2018-11-28T08:05:02.231Z,3.55
2018-11-28T08:09:58.180Z,3.85
2018-11-28T08:14:51.718Z,4.03
2018-11-28T08:19:45.075Z,4.11
2018-11-28T08:24:38.666Z,4.34
2018-11-28T08:29:32.079Z,4.09
2018-11-28T08:34:25.572Z,3.91
2018-11-28T08:39:20.266Z,3.90
2018-11-28T08:44:14.050Z,3.90
2018-11-28T08:49:07.803Z,3.98
2018-11-28T08:54:01.564Z,4.08
2018-11-28T08:58:55.522Z,3.89
2018-11-28T09:03:51.952Z,3.94
2018-11-28T09:08:45.602Z,3.66
2018-11-28T09:13:38.945Z,3.38
2018-11-28T09:18:33.624Z,3.31
2018-11-28T09:23:28.370Z,2.69
2018-11-28T09:28:22.034Z,2.48
2018-11-28T09:33:15.815Z,2.57
2018-11-28T09:38:10.836Z,2.28
2018-11-28T09:43:04.624Z,2.16
2018-11-28T09:47:58.339Z,2.22
2018-11-28T09:52:52.069Z,2.05
2018-11-28T09:57:45.698Z,2.03
2018-11-28T10:02:39.169Z,2.03
2018-11-28T10:07:32.719Z,2.14
2018-11-28T10:12:28.784Z,2.43
2018-11-28T10:17:22.162Z,2.95
2018-11-28T10:22:15.573Z,3.18
2018-11-28T10:27:09.072Z,3.28
2018-11-28T10:32:02.496Z,2.96
2018-11-28T10:36:57.485Z,3.04
2018-11-28T10:41:51.306Z,2.62
2018-11-28T10:46:45.991Z,2.42
2018-11-28T10:51:42.256Z,2.47
2018-11-28T10:56:38.102Z,2.46
2018-11-28T11:01:32.306Z,2.44
2018-11-28T11:06:31.963Z,2.46
2018-11-28T11:11:26.441Z,2.26
2018-11-28T11:16:31.320Z,2.15
2018-11-28T11:21:24.963Z,1.94
2018-11-28T11:26:18.643Z,1.99
2018-11-28T11:31:12.259Z,1.84
2018-11-28T11:36:06.849Z,1.81
2018-11-28T11:41:00.332Z,1.91
2018-11-28T11:45:53.800Z,1.82
2018-11-28T11:50:49.484Z,1.91
2018-11-28T11:55:42.881Z,1.71
2018-11-28T12:00:38.394Z,1.43
2018-11-28T12:05:32.403Z,1.50
2018-11-28T12:10:28.780Z,1.31
2018-11-28T12:15:23.811Z,1.06
2018-11-28T12:20:27.070Z,0.97
2018-11-28T12:25:21.328Z,0.85
2018-11-28T12:30:15.923Z,0.80
2018-11-28T12:35:13.042Z,0.74
2018-11-28T12:40:10.786Z,0.65
2018-11-28T12:45:06.672Z,0.59
2018-11-28T12:50:00.516Z,0.66
2018-11-28T12:54:54.140Z,0.53
2018-11-28T12:59:47.842Z,0.38
2018-11-28T13:04:41.414Z,0.16
2018-11-28T13:09:37.626Z,-0.05
2018-11-28T13:14:31.221Z,-0.15
2018-11-28T13:19:24.612Z,-0.37
2018-11-28T13:24:21.123Z,-0.48
2018-11-28T13:29:15.430Z,-0.48
2018-11-28T13:34:09.977Z,-0.44
2018-11-28T19:43:59.221Z,-1.10
2018-11-28T19:48:52.693Z,-1.05
2018-11-28T19:53:46.730Z,-1.03
2018-11-28T19:58:40.480Z,-1.20
2018-11-28T20:03:34.085Z,-1.30
2018-11-28T20:08:27.972Z,-1.43
2018-11-28T20:13:21.771Z,-1.46
2018-11-28T20:18:15.320Z,-1.44
2018-11-28T20:23:09.207Z,-1.54
2018-11-28T20:28:02.994Z,-1.35
2018-11-28T20:32:56.541Z,-1.40
2018-11-28T20:37:50.425Z,-1.45
2018-11-28T20:42:47.569Z,-1.54
2018-11-28T20:47:41.816Z,-1.55
2018-11-28T20:52:35.612Z,-1.56
2018-11-28T20:57:29.650Z,-1.64
2018-11-28T21:02:23.235Z,-1.61
2018-11-28T21:07:17.005Z,-1.65
2018-11-28T21:12:10.787Z,-1.65
2018-11-28T21:17:04.470Z,-1.67
2018-11-28T21:21:58.254Z,-1.69
2018-11-28T21:26:52.047Z,-1.65
2018-11-28T21:31:47.998Z,-1.65
2018-11-28T21:36:41.516Z,-1.69
2018-11-28T21:41:35.268Z,-1.68
2018-11-28T21:46:28.852Z,-1.60
2018-11-28T21:51:22.337Z,-1.63
2018-11-28T21:56:15.989Z,-1.65
2018-11-28T22:01:09.889Z,-1.74
2018-11-28T22:06:03.471Z,-1.66
2018-11-28T22:10:57.055Z,-1.80
2018-11-28T22:15:50.785Z,-1.82
2018-11-28T22:20:44.281Z,-1.88
2018-11-28T22:25:37.803Z,-1.87
2018-11-28T22:30:31.319Z,-1.93
2018-11-28T22:35:24.953Z,-1.86
2018-11-28T22:40:22.546Z,-1.99
2018-11-28T22:45:20.948Z,-1.99
2018-11-28T22:50:14.769Z,-1.95
2018-11-28T22:55:10.314Z,-1.89
2018-11-28T23:00:04.891Z,-1.89
2018-11-28T23:04:58.824Z,-1.94
2018-11-28T23:09:52.343Z,-1.78
2018-11-28T23:14:45.867Z,-1.78
2018-11-28T23:19:39.286Z,-1.92
2018-11-28T23:24:33.110Z,-1.90
2018-11-28T23:29:26.637Z,-1.78
2018-11-28T23:34:19.994Z,-1.85
2018-11-28T23:39:13.470Z,-1.91
2018-11-28T23:44:07.205Z,-2.03
2018-11-28T23:49:00.779Z,-2.07
2018-11-28T23:53:54.195Z,-2.10
2018-11-28T23:58:47.755Z,-2.17
